• Join FlightAware (Why Join?)
  • Login
  • US Flag 
02:06AM EDT


 

Airport Tracker/Info


-or-


 

Live Flight TrackerFlight Track Log ✈ SWA1040 ✈ 04-May-2013 ✈ KMCO - KALB

Flight Track Log - Related Links

Times and Time Zones

All times are in EDT time to prevent confusion due to time zone crossing. See the SWA1040 flight status page for this flight to view local times or setup timezone preferences in your user account.

Time Position Orientation Groundspeed Altitude Reporting Facility
EDT Latitude Longitude Course Direction KTS MPH feet Rate Location/Type
09:22AM 28.4000 -81.3000 360° North 165 190 600  Level Orlando TRACON
09:22AM 28.4000 -81.3000 132° Southeast 163 188 1,300 1,800 Climbing Orlando TRACON
09:24AM 28.3161 -81.1925 132° Southeast 223 257 4,900 2,220 Climbing Jacksonville Center
09:25AM 28.3464 -81.1167 66° East 223 257 8,300 3,000 Climbing Jacksonville Center
09:26AM 28.4197 -81.1506 338° Northwest 159 183 11,000 2,700 Climbing Jacksonville Center
09:27AM 28.5000 -81.2083 328° Northwest 250 288 13,800 2,940 Climbing Jacksonville Center
09:28AM 28.5800 -81.2708 326° Northwest 301 346 16,900 2,940 Climbing Jacksonville Center
09:29AM 28.6786 -81.3025 344° North 337 388 19,700 2,580 Climbing Jacksonville Center
09:30AM 28.7872 -81.3150 354° North 363 418 22,100 2,220 Climbing Jacksonville Center
09:31AM 28.9000 -81.3272 355° North 389 448 24,200 1,920 Climbing Jacksonville Center
09:32AM 29.0172 -81.3422 354° North 408 470 26,000 1,620 Climbing Jacksonville Center
09:33AM 29.1342 -81.3544 355° North 413 475 27,500 1,620 Climbing Jacksonville Center
09:34AM 29.2511 -81.3717 353° North 418 481 29,300 1,740 Climbing Jacksonville Center
09:35AM 29.3703 -81.3889 353° North 428 493 31,000 1,920 Climbing Jacksonville Center
09:36AM 29.5000 -81.4061 353° North 428 493 33,200 1,860 Climbing Jacksonville Center
09:37AM 29.6169 -81.4186 355° North 423 487 34,800 900 Climbing Jacksonville Center
09:38AM 29.7322 -81.4600 343° North 423 487 35,000 600 Climbing Jacksonville Center
09:39AM 29.8497 -81.5108 339° North 430 495 36,000 1,140 Climbing Jacksonville Center
09:40AM 29.9653 -81.5594 340° North 443 510 37,300 1,380 Climbing Jacksonville Center
09:41AM 30.0742 -81.5989 343° North 450 518 38,800 840 Climbing Jacksonville Center
09:42AM 30.1972 -81.5803 North 445 512 39,000 60 Climbing Jacksonville Center
09:43AM 30.3242 -81.5594 North 445 512 39,000  Level Jacksonville Center
09:44AM 30.4514 -81.5358 North 450 518 39,000  Level Jacksonville Center
09:45AM 30.5742 -81.5100 10° North 450 518 39,000  Level Jacksonville Center
09:46AM 30.7036 -81.4864 North 450 518 39,000  Level Jacksonville Center
09:47AM 30.8264 -81.4628 North 450 518 39,000  Level Jacksonville Center
09:48AM 30.9536 -81.4392 North 450 518 39,000  Level Jacksonville Center
09:49AM 31.0806 -81.4153 North 456 525 39,000  Level Jacksonville Center
09:50AM 31.2078 -81.3892 10° North 456 525 39,000  Level Jacksonville Center
09:51AM 31.3369 -81.3650 North 461 531 39,000  Level Jacksonville Center
09:52AM 31.4617 -81.3361 11° North 461 531 39,000  Level Jacksonville Center
09:53AM 31.5992 -81.3094 North 461 531 39,000  Level Jacksonville Center
09:54AM 31.7139 -81.2881 North 466 536 39,000  Level Jacksonville Center
09:55AM 31.8553 -81.2561 11° North 467 537 39,000  Level Jacksonville Center
09:56AM 31.9719 -81.2344 North 467 537 39,000  Level Jacksonville Center
09:57AM 32.0989 -81.2103 North 467 537 39,000  Level Jacksonville Center
09:58AM 32.2192 -81.1492 23° Northeast 467 537 39,000  Level Jacksonville Center
09:59AM 32.3308 -81.0683 31° Northeast 461 531 39,000  Level Jacksonville Center
10:00AM 32.4425 -80.9872 32° Northeast 466 536 39,000  Level Jacksonville Center
10:01AM 32.5581 -80.9036 31° Northeast 471 542 39,000  Level Jacksonville Center
10:02AM 32.6694 -80.8219 32° Northeast 471 542 39,000  Level Jacksonville Center
10:03AM 32.7889 -80.7328 32° Northeast 465 535 39,000  Level Jacksonville Center
10:04AM 32.9025 -80.6511 31° Northeast 465 535 39,000  Level Jacksonville Center
10:05AM 33.0136 -80.5714 31° Northeast 465 535 39,000  Level Jacksonville Center
10:06AM 33.1250 -80.4917 31° Northeast 465 535 39,000  Level Jacksonville Center
10:07AM 33.2400 -80.4067 32° Northeast 465 535 39,000  Level Jacksonville Center
10:08AM 33.3531 -80.3214 32° Northeast 465 535 39,000  Level Jacksonville Center
10:09AM 33.4664 -80.2383 31° Northeast 471 542 39,000  Level Jacksonville Center
10:10AM 33.5792 -80.1528 32° Northeast 466 536 39,000  Level Jacksonville Center
10:11AM 33.6922 -80.0694 32° Northeast 466 536 39,000  Level Jacksonville Center
10:12AM 33.8069 -79.9808 33° Northeast 466 536 39,000  Level Jacksonville Center
10:13AM 33.9197 -79.8969 32° Northeast 466 536 39,000  Level Jacksonville Center
10:14AM 34.0325 -79.8103 32° Northeast 466 536 39,000  Level Jacksonville Center
10:15AM 34.1472 -79.7261 31° Northeast 466 536 39,000  Level Jacksonville Center
10:16AM 34.2372 -79.6575 32° Northeast 466 536 39,000  Level Jacksonville Center
10:18AM 34.4275 -79.5575 23° Northeast 462 532 39,000  Level Washington Center
10:19AM 34.5483 -79.4953 23° Northeast 467 537 39,000  Level Washington Center
10:20AM 34.6717 -79.4278 24° Northeast 467 537 39,000  Level Washington Center
10:21AM 34.7925 -79.3653 23° Northeast 467 537 39,000  Level Washington Center
10:22AM 34.9133 -79.3025 23° Northeast 467 537 39,000  Level Washington Center
10:23AM 35.0364 -79.2347 24° Northeast 462 532 39,000  Level Washington Center
10:24AM 35.1553 -79.1714 24° Northeast 462 532 39,000  Level Washington Center
10:25AM 35.2761 -79.1081 23° Northeast 462 532 39,000  Level Washington Center
10:26AM 35.3850 -79.0236 32° Northeast 462 532 39,000  Level Washington Center
10:27AM 35.4897 -78.9364 34° Northeast 462 532 39,000  Level Washington Center
10:28AM 35.5986 -78.8439 35° Northeast 462 532 39,000  Level Washington Center
10:29AM 35.7181 -78.7439 34° Northeast 462 532 39,000  Level Washington Center
10:30AM 35.8228 -78.6533 35° Northeast 462 532 39,000  Level Washington Center
10:31AM 35.9250 -78.5647 35° Northeast 462 532 39,000  Level Washington Center
10:32AM 36.0317 -78.4739 35° Northeast 457 526 39,000  Level Washington Center
10:33AM 36.1381 -78.3825 35° Northeast 457 526 39,000  Level Washington Center
10:34AM 36.2425 -78.2908 35° Northeast 457 526 39,000  Level Washington Center
10:35AM 36.3467 -78.2017 35° Northeast 457 526 39,000  Level Washington Center
10:36AM 36.4339 -78.1194 37° Northeast 457 526 39,000  Level Washington Center
10:37AM 36.5403 -78.0297 34° Northeast 452 520 39,000  Level Washington Center
10:38AM 36.6422 -77.9397 35° Northeast 452 520 39,000  Level Washington Center
10:39AM 36.7419 -77.8494 36° Northeast 452 520 39,000  Level Washington Center
10:40AM 36.8458 -77.7592 35° Northeast 452 520 39,000  Level Washington Center
10:41AM 36.9453 -77.6736 35° Northeast 447 514 39,000  Level Washington Center
10:42AM 37.0450 -77.5825 36° Northeast 447 514 39,000  Level Washington Center
10:43AM 37.1467 -77.4939 35° Northeast 441 507 39,000  Level Washington Center
10:44AM 37.2461 -77.4050 35° Northeast 436 502 39,000  Level Washington Center
10:45AM 37.3475 -77.3161 35° Northeast 436 502 39,000  Level Washington Center
10:46AM 37.4489 -77.2294 34° Northeast 436 502 39,000  Level Washington Center
10:47AM 37.5503 -77.1347 37° Northeast 436 502 39,000  Level Washington Center
10:48AM 37.6494 -77.0422 36° Northeast 441 507 39,000  Level Washington Center
10:49AM 37.7506 -76.9522 35° Northeast 441 507 39,000  Level Washington Center
10:50AM 37.8475 -76.8619 36° Northeast 441 507 39,000  Level Washington Center
10:51AM 37.9464 -76.7714 36° Northeast 441 507 39,000  Level Washington Center
10:52AM 38.0453 -76.6808 36° Northeast 436 502 39,000  Level Washington Center
10:53AM 38.1419 -76.5922 36° Northeast 436 502 39,000  Level Washington Center
10:54AM 38.2386 -76.5011 37° Northeast 431 496 39,000  Level Washington Center
10:55AM 38.3331 -76.4150 36° Northeast 431 496 39,000  Level Washington Center
10:56AM 38.4317 -76.3206 37° Northeast 431 496 39,000  Level Washington Center
10:57AM 38.5406 -76.2208 36° Northeast 436 502 39,000  Level Washington Center
10:58AM 38.6328 -76.1392 35° Northeast 436 502 39,000  Level Washington Center
10:59AM 38.7289 -76.0494 36° Northeast 436 502 39,000  Level Washington Center
11:00AM 38.8231 -75.9567 37° Northeast 431 496 39,000  Level Washington Center
11:01AM 38.9192 -75.8664 36° Northeast 431 496 39,000  Level Washington Center
11:02AM 39.0153 -75.7758 36° Northeast 426 490 39,000  Level Washington Center
11:03AM 39.1114 -75.6853 36° Northeast 431 496 39,000 -360 Level Washington Center
11:04AM 39.2072 -75.5942 36° Northeast 431 496 38,300 -840 Descending Washington Center
11:05AM 39.3008 -75.5031 37° Northeast 431 496 37,400 -1,020 Descending Washington Center
11:07AM 39.4725 -75.3403 36° Northeast 417 480 35,600 -960 Descending New York Center
11:08AM 39.5678 -75.2467 37° Northeast 428 493 35,000 -360 Descending New York Center
11:09AM 39.6631 -75.1558 36° Northeast 429 494 35,000  Level New York Center
11:10AM 39.7583 -75.0564 39° Northeast 434 499 35,000  Level New York Center
11:11AM 39.8533 -74.9647 37° Northeast 434 499 35,000  Level New York Center
11:12AM 39.9464 -74.8675 39° Northeast 429 494 35,000  Level New York Center
11:13AM 40.0317 -74.7586 44° Northeast 434 499 35,000 -120 Level New York Center
11:14AM 40.1106 -74.6383 49° Northeast 429 494 34,800 -660 Descending New York Center
11:15AM 40.1892 -74.5258 48° Northeast 424 488 33,800 -1,080 Descending New York Center
11:16AM 40.2633 -74.4292 45° Northeast 419 482 32,800 -1,020 Descending New York Center
11:17AM 40.3514 -74.3358 39° Northeast 404 465 31,800 -900 Descending New York Center
11:18AM 40.4378 -74.2422 40° Northeast 399 459 31,000 -780 Descending New York Center
11:19AM 40.5236 -74.1511 39° Northeast 394 453 30,300 -1,500 Descending New York Center
11:20AM 40.6097 -74.0597 39° Northeast 394 453 28,100 -2,100 Descending New York Center
11:21AM 40.7569 -73.9033 39° Northeast 392 451 24,500 -1,500 Descending Boston Center
11:22AM 40.8311 -73.8169 41° Northeast 365 420 24,000 -300 Descending Boston Center
11:23AM 40.8967 -73.7361 43° Northeast 336 387 24,000  Level Boston Center
11:24AM 40.9642 -73.6522 43° Northeast 330 380 24,000 -540 Level Boston Center
11:25AM 41.0522 -73.6100 20° North 321 369 23,000 -540 Descending Boston Center
11:26AM 41.1358 -73.5700 20° North 316 364 23,000 -360 Level Boston Center
11:27AM 41.2178 -73.5300 20° North 316 364 22,300 -900 Descending Boston Center
11:28AM 41.3014 -73.4928 18° North 316 364 21,300 -1,020 Descending Boston Center
11:30AM 41.4097 -73.4947 359° North 304 350 20,100 -1,020 Descending Boston Center
11:31AM 41.5014 -73.4933 North 310 357 19,100 -900 Descending Boston Center
11:32AM 41.5700 -73.5000 356° North 310 357 18,300 -840 Descending Boston Center
11:33AM 41.6847 -73.5047 358° North 310 357 17,500 -840 Descending Boston Center
11:34AM 41.7492 -73.5086 357° North 315 362 16,700 -1,020 Descending Boston Center
11:35AM 41.8639 -73.5161 357° North 315 362 15,500 -1,440 Descending Boston Center
11:36AM 41.9556 -73.5178 359° North 315 362 13,900 -1,620 Descending Boston Center
11:37AM 42.0408 -73.5219 358° North 310 357 12,300 -1,500 Descending Boston Center
11:38AM 42.1264 -73.5261 358° North 310 357 11,000 -660 Descending Boston Center
11:39AM 42.2097 -73.5136 North 305 351 11,000  Level Boston Center
11:40AM 42.2892 -73.4953 10° North 300 345 11,000 -360 Level Boston Center
11:41AM 42.3661 -73.5078 353° North 287 330 10,400 -900 Descending Boston Center
11:42AM 42.4325 -73.5625 329° Northwest 281 323 9,300 -1,080 Descending Boston Center
11:43AM 42.4986 -73.6114 331° Northwest 278 320 8,300 -960 Descending Boston Center
11:44AM 42.5628 -73.6606 331° Northwest 275 316 7,400 -1,320 Descending Boston Center
11:45AM 42.6369 -73.7186 330° Northwest 277 319 5,700 -1,740 Descending Boston Center
11:45AM 42.6369 -73.7186 330° Northwest 272 313 5,700 -1,620 Level Boston Center
11:46AM 42.7056 -73.7342 351° North 246 283 4,100 -1,380 Descending Boston Center
11:47AM 42.6772 -73.6769 124° Southeast 94 108 3,000 -600 Descending Boston Center
11:48AM 42.6578 -73.7303 244° Southwest 103 119 3,000 -660 Level Boston Center
11:49AM 42.5950 -73.7544 196° South 126 145 1,700 9,960 Descending Boston Center
11:50AM 42.5697 -73.7708 206° Southwest 126 145 23,000 10,620 Climbing Boston Center
11:51AM 42.5319 -73.7953 205° Southwest 126 145 23,000  Level Boston Center
11:52AM 42.5006 -73.8172 207° Southwest 126 145 23,000  Level Boston Center
11:53AM 42.4817 -73.8281 203° Southwest 126 145 23,000  Level Boston Center